Terminal Aerodrome Forecast
Issued by NWS

Home | Current Version | Previous Version | Text Only | Print | Product List | Glossary On
Versions: 1 2 3 4 5 6 7 8 9 10 11 12 13 14 15
538
FTUS43 KGRR 141732
TAFMKG
TAF
KMKG 141732Z 1418/1518 14014KT P6SM BKN250
     FM142300 13012G18KT 6SM -SN OVC035
     FM150500 14011KT 3SM -SN OVC015
     FM151200 17006KT 4SM -SN OVC015=

USA.gov is the U.S. government's official web portal to all federal, state and local government web resources and services.